createdAt,value
2023-09-25T00:01:48.318Z,17.58
2023-09-25T00:04:17.235Z,17.57
2023-09-25T00:06:47.669Z,17.59
2023-09-25T00:09:16.216Z,17.62
2023-09-25T00:11:45.766Z,17.61
2023-09-25T00:14:15.057Z,17.66
2023-09-25T00:16:43.614Z,17.68
2023-09-25T00:19:12.781Z,17.69
2023-09-25T00:21:41.971Z,17.70
2023-09-25T00:24:12.222Z,17.65
2023-09-25T00:26:40.746Z,17.64
2023-09-25T00:29:09.484Z,17.64
2023-09-25T00:31:38.585Z,17.67
2023-09-25T00:34:07.253Z,17.66
2023-09-25T00:36:36.032Z,17.70
2023-09-25T00:39:07.488Z,17.70
2023-09-25T00:41:38.134Z,17.68
2023-09-25T00:44:06.817Z,17.71
2023-09-25T00:46:35.320Z,17.70
2023-09-25T00:49:04.028Z,17.73
2023-09-25T00:51:32.604Z,17.73
2023-09-25T00:54:00.999Z,17.75
2023-09-25T00:56:29.582Z,17.78
2023-09-25T00:59:00.318Z,17.79
2023-09-25T01:01:29.329Z,17.80
2023-09-25T01:03:58.403Z,17.76
2023-09-25T01:06:26.885Z,17.81
2023-09-25T01:08:55.527Z,17.82
2023-09-25T01:11:24.103Z,17.79
2023-09-25T01:13:53.914Z,17.76
2023-09-25T01:16:25.815Z,17.71
2023-09-25T01:18:54.220Z,17.68
2023-09-25T01:21:24.144Z,17.66
2023-09-25T01:23:54.295Z,17.69
2023-09-25T01:26:23.110Z,17.61
2023-09-25T01:28:51.950Z,17.63
2023-09-25T01:31:20.549Z,17.64
2023-09-25T01:33:49.499Z,17.65
2023-09-25T01:36:18.428Z,17.56
2023-09-25T01:38:48.004Z,17.64
2023-09-25T01:41:19.076Z,17.59
2023-09-25T01:43:47.478Z,17.58
2023-09-25T01:46:18.466Z,17.52
2023-09-25T01:48:48.086Z,17.44
2023-09-25T01:51:17.031Z,17.50
2023-09-25T01:53:47.459Z,17.45
2023-09-25T01:56:17.751Z,17.46
2023-09-25T01:58:46.336Z,17.52
2023-09-25T02:01:14.722Z,17.42
2023-09-25T02:03:44.607Z,17.44
2023-09-25T02:06:14.410Z,17.41
2023-09-25T02:08:43.543Z,17.39
2023-09-25T02:11:12.091Z,17.42
2023-09-25T02:13:43.043Z,17.34
2023-09-25T02:16:11.931Z,17.39
2023-09-25T02:18:40.470Z,17.41
2023-09-25T02:21:09.237Z,17.35
2023-09-25T02:23:40.373Z,17.37
2023-09-25T02:26:09.141Z,17.36
2023-09-25T02:28:37.514Z,17.40
2023-09-25T02:31:08.748Z,17.39
2023-09-25T02:33:37.697Z,17.37
2023-09-25T02:36:07.295Z,17.34
2023-09-25T02:38:36.636Z,17.32
2023-09-25T02:41:05.774Z,17.34
2023-09-25T02:43:34.339Z,17.32
2023-09-25T02:46:03.330Z,17.33
2023-09-25T02:48:34.710Z,17.34
2023-09-25T02:51:03.478Z,17.30
2023-09-25T02:53:33.296Z,17.27
2023-09-25T02:56:01.985Z,17.17
2023-09-25T02:58:31.402Z,17.30
2023-09-25T03:01:01.349Z,17.19
2023-09-25T03:03:31.526Z,17.31
2023-09-25T03:06:01.503Z,17.24
2023-09-25T03:08:30.016Z,17.23
2023-09-25T03:10:58.800Z,17.21
2023-09-25T03:13:27.262Z,17.21
2023-09-25T03:15:56.107Z,17.33
2023-09-25T03:18:24.737Z,17.21
2023-09-25T03:20:53.310Z,17.17
2023-09-25T03:23:23.781Z,17.20
2023-09-25T03:25:52.433Z,17.17
2023-09-25T03:28:21.653Z,17.20
2023-09-25T03:30:50.970Z,17.22
2023-09-25T03:33:19.879Z,17.23
2023-09-25T03:35:48.607Z,17.25
2023-09-25T03:38:17.168Z,17.24
2023-09-25T03:40:47.394Z,17.25
2023-09-25T03:43:15.955Z,17.31
2023-09-25T03:45:44.721Z,17.27
2023-09-25T03:48:13.308Z,17.35
2023-09-25T03:50:42.046Z,17.28
2023-09-25T03:53:12.549Z,17.30
2023-09-25T03:55:41.396Z,17.22
2023-09-25T03:58:11.608Z,17.25
2023-09-25T04:00:40.941Z,17.28
2023-09-25T04:03:09.785Z,17.25
2023-09-25T04:05:38.440Z,17.24
2023-09-25T04:08:07.418Z,17.18
2023-09-25T04:10:35.852Z,17.23
2023-09-25T04:13:04.317Z,17.22
2023-09-25T04:15:34.083Z,17.21
2023-09-25T04:18:03.007Z,17.20
2023-09-25T04:20:33.495Z,17.12
2023-09-25T04:23:01.858Z,17.08
2023-09-25T04:25:30.511Z,17.08
2023-09-25T04:27:59.121Z,17.09
2023-09-25T04:30:29.344Z,17.01
2023-09-25T04:33:00.294Z,17.04
2023-09-25T04:35:29.877Z,17.01
2023-09-25T04:37:58.473Z,16.99
2023-09-25T04:40:32.317Z,16.95
2023-09-25T04:43:01.911Z,16.93
2023-09-25T04:45:31.243Z,16.93
2023-09-25T04:48:01.978Z,16.98
2023-09-25T04:50:31.338Z,16.92
2023-09-25T04:53:00.001Z,16.91
2023-09-25T04:55:28.353Z,16.86
2023-09-25T04:57:57.081Z,16.80
2023-09-25T05:00:28.078Z,16.79
2023-09-25T05:02:57.967Z,16.76
2023-09-25T05:05:28.575Z,16.67
2023-09-25T05:07:59.055Z,16.63
2023-09-25T05:10:28.923Z,16.58
2023-09-25T05:12:58.319Z,16.56
2023-09-25T05:15:27.417Z,16.51
2023-09-25T05:17:56.437Z,16.46
2023-09-25T05:20:26.960Z,16.39
2023-09-25T05:22:58.906Z,16.32
2023-09-25T05:25:28.374Z,16.27
2023-09-25T05:27:58.384Z,16.23
2023-09-25T05:30:26.949Z,16.17
2023-09-25T05:32:55.847Z,16.11
2023-09-25T05:35:24.888Z,16.04
2023-09-25T05:37:54.498Z,15.97
2023-09-25T05:40:25.131Z,15.90
2023-09-25T05:42:53.798Z,15.86
2023-09-25T05:45:23.045Z,15.82
2023-09-25T05:47:51.948Z,15.74
2023-09-25T05:50:20.816Z,15.69
2023-09-25T05:52:49.576Z,15.65
2023-09-25T05:55:18.267Z,15.57
2023-09-25T05:57:48.264Z,15.50
2023-09-25T06:00:19.661Z,15.46
2023-09-25T06:02:50.114Z,15.41
2023-09-25T06:05:19.409Z,15.37
2023-09-25T06:07:48.166Z,15.33
2023-09-25T06:10:19.455Z,15.28
2023-09-25T06:12:51.930Z,15.24
2023-09-25T06:15:24.944Z,15.22
2023-09-25T06:17:54.606Z,15.22
2023-09-25T06:20:26.175Z,15.20
2023-09-25T06:22:55.100Z,15.18
2023-09-25T06:25:23.996Z,15.17
2023-09-25T06:27:54.539Z,15.19
2023-09-25T06:30:23.451Z,15.22
2023-09-25T06:32:52.430Z,15.25
2023-09-25T06:35:21.192Z,15.29
2023-09-25T06:37:50.050Z,15.32
2023-09-25T06:40:20.546Z,15.38
2023-09-25T06:42:49.673Z,15.42
2023-09-25T06:45:22.857Z,15.49
2023-09-25T06:47:52.010Z,15.62
2023-09-25T06:50:20.976Z,15.75
2023-09-25T06:52:49.493Z,15.85
2023-09-25T06:55:18.163Z,15.99
2023-09-25T06:57:47.352Z,16.10
2023-09-25T07:00:16.498Z,16.17
2023-09-25T07:02:46.909Z,16.24
2023-09-25T07:05:16.488Z,16.37
2023-09-25T07:07:45.566Z,16.38
2023-09-25T07:10:14.245Z,16.45
2023-09-25T07:12:43.976Z,16.52
2023-09-25T07:15:13.596Z,16.56
2023-09-25T07:17:42.641Z,16.66
2023-09-25T07:20:13.588Z,16.69
2023-09-25T07:22:43.556Z,16.71
2023-09-25T07:25:11.921Z,16.76
2023-09-25T07:27:43.100Z,16.83
2023-09-25T07:30:12.772Z,16.84
2023-09-25T07:32:43.722Z,16.87
2023-09-25T07:35:16.619Z,16.88
2023-09-25T07:37:45.789Z,16.90
2023-09-25T07:40:15.878Z,16.96
2023-09-25T07:42:45.109Z,17.06
2023-09-25T07:45:16.322Z,17.07
2023-09-25T07:47:45.709Z,17.12
2023-09-25T07:50:15.881Z,17.10
2023-09-25T07:52:44.497Z,17.18
2023-09-25T07:55:13.560Z,17.16
2023-09-25T07:57:44.075Z,17.29
2023-09-25T08:00:18.971Z,17.31
2023-09-25T08:02:49.191Z,17.39
2023-09-25T08:05:19.842Z,17.58
2023-09-25T08:07:49.721Z,17.69
2023-09-25T08:10:19.547Z,17.75
2023-09-25T08:12:48.331Z,17.83
2023-09-25T08:15:17.260Z,17.99
2023-09-25T08:17:47.181Z,18.14
2023-09-25T08:20:22.153Z,18.33
2023-09-25T08:22:59.857Z,18.35
2023-09-25T08:25:28.748Z,18.33
2023-09-25T08:27:57.644Z,18.38
2023-09-25T08:30:26.310Z,18.56
2023-09-25T08:32:55.791Z,18.83
2023-09-25T08:35:25.362Z,18.99
2023-09-25T08:37:55.305Z,18.97
2023-09-25T08:40:24.307Z,18.77
2023-09-25T08:43:05.106Z,18.71
2023-09-25T08:45:44.653Z,18.78
2023-09-25T08:48:13.761Z,18.92
2023-09-25T08:50:43.114Z,19.12
2023-09-25T08:53:13.248Z,19.16
2023-09-25T08:55:42.563Z,19.36
2023-09-25T08:58:11.844Z,19.37
2023-09-25T09:00:42.150Z,19.47
2023-09-25T09:03:11.043Z,19.59
2023-09-25T09:05:39.946Z,19.63
2023-09-25T09:08:09.618Z,19.78
2023-09-25T09:10:41.547Z,19.91
2023-09-25T09:13:12.158Z,20.02
2023-09-25T09:15:42.744Z,20.07
2023-09-25T09:18:26.242Z,20.18
2023-09-25T09:20:56.747Z,20.13
2023-09-25T09:23:42.185Z,20.32
2023-09-25T09:26:15.357Z,20.36
2023-09-25T09:28:44.943Z,20.39
2023-09-25T09:31:13.509Z,20.23
2023-09-25T09:33:43.721Z,20.35
2023-09-25T09:36:14.204Z,20.31
2023-09-25T09:38:47.588Z,20.42
2023-09-25T09:41:19.520Z,20.50
2023-09-25T09:43:49.744Z,20.49
2023-09-25T09:46:18.937Z,20.68
2023-09-25T09:48:49.810Z,20.82
2023-09-25T09:51:19.072Z,20.88
2023-09-25T09:53:48.312Z,21.08
2023-09-25T09:56:22.127Z,21.23
2023-09-25T09:58:51.799Z,21.21
2023-09-25T10:01:21.521Z,21.43
2023-09-25T10:03:51.114Z,21.54
2023-09-25T10:06:20.156Z,21.59
2023-09-25T10:09:02.094Z,21.75
2023-09-25T10:11:32.148Z,21.59
2023-09-25T10:14:05.493Z,21.73
2023-09-25T10:17:09.808Z,21.89
2023-09-25T10:19:50.275Z,22.10
2023-09-25T10:22:21.833Z,22.07
2023-09-25T10:25:04.040Z,21.94
2023-09-25T10:27:34.396Z,21.76
2023-09-25T10:30:12.952Z,21.94
2023-09-25T10:32:44.071Z,21.80
2023-09-25T10:35:38.393Z,22.05
2023-09-25T10:41:01.629Z,22.00
2023-09-25T10:43:32.897Z,22.12
2023-09-25T10:46:01.916Z,22.19
2023-09-25T10:48:33.366Z,22.24
2023-09-25T10:51:02.742Z,22.14
2023-09-25T10:53:34.189Z,22.12
2023-09-25T10:56:02.501Z,21.80
2023-09-25T10:58:32.873Z,22.04
2023-09-25T11:01:06.398Z,22.16
2023-09-25T11:03:38.236Z,22.33
2023-09-25T11:06:07.495Z,22.43
2023-09-25T11:08:36.270Z,22.44
2023-09-25T11:11:04.862Z,22.56
2023-09-25T11:13:35.012Z,22.55
2023-09-25T11:16:04.802Z,22.69
2023-09-25T11:18:34.142Z,22.75
2023-09-25T11:21:02.882Z,22.92
2023-09-25T11:23:34.961Z,23.00
2023-09-25T11:26:05.360Z,23.13
2023-09-25T11:28:35.062Z,23.18
2023-09-25T11:31:04.644Z,23.16
2023-09-25T11:33:34.516Z,23.34
2023-09-25T11:36:12.001Z,23.48
2023-09-25T11:38:54.737Z,23.30
2023-09-25T11:41:31.901Z,23.04
2023-09-25T11:44:11.007Z,23.13
2023-09-25T11:46:40.318Z,23.23
2023-09-25T11:49:09.364Z,23.51
2023-09-25T11:51:38.493Z,23.36
2023-09-25T11:54:07.227Z,23.49
2023-09-25T11:56:35.889Z,23.69
2023-09-25T11:59:05.206Z,23.99
2023-09-25T12:01:37.970Z,24.14
2023-09-25T12:04:06.661Z,24.11
2023-09-25T12:06:36.224Z,24.50
2023-09-25T12:09:12.827Z,24.53
2023-09-25T12:11:43.519Z,24.87
2023-09-25T12:14:12.801Z,25.18
2023-09-25T12:16:43.531Z,25.54
2023-09-25T12:19:13.254Z,25.42
2023-09-25T12:21:42.385Z,25.47
2023-09-25T12:24:11.413Z,25.74
2023-09-25T12:26:40.767Z,25.94
2023-09-25T12:29:11.613Z,25.58
2023-09-25T12:31:40.180Z,25.40
2023-09-25T12:34:10.293Z,25.50
2023-09-25T12:36:39.972Z,25.87
2023-09-25T12:39:10.577Z,26.06
2023-09-25T12:41:40.755Z,26.34
2023-09-25T12:44:09.366Z,26.16
2023-09-25T12:46:38.351Z,26.27
2023-09-25T12:49:06.996Z,26.23
2023-09-25T12:51:37.674Z,26.36
2023-09-25T12:54:06.907Z,26.29
2023-09-25T12:56:36.000Z,26.26
2023-09-25T12:59:04.444Z,26.02
2023-09-25T13:01:32.758Z,26.00
2023-09-25T13:04:01.315Z,26.17
2023-09-25T13:06:30.399Z,25.97
2023-09-25T13:09:02.284Z,25.60
2023-09-25T13:11:35.318Z,26.02
2023-09-25T13:14:05.499Z,26.19
2023-09-25T13:16:33.982Z,26.42
2023-09-25T13:19:03.368Z,26.75
2023-09-25T13:21:31.832Z,26.68
2023-09-25T13:24:01.504Z,26.50
2023-09-25T13:26:30.092Z,26.46
2023-09-25T13:28:59.084Z,26.42
2023-09-25T13:31:27.759Z,26.22
2023-09-25T13:33:56.499Z,26.06
2023-09-25T13:36:26.669Z,25.89
2023-09-25T13:38:55.672Z,26.13
2023-09-25T13:41:25.733Z,26.27
2023-09-25T13:43:54.152Z,25.68
2023-09-25T13:46:22.975Z,25.67
2023-09-25T13:48:51.758Z,25.56
2023-09-25T13:51:20.426Z,25.30
2023-09-25T13:53:49.729Z,25.47
2023-09-25T13:56:19.530Z,25.47
2023-09-25T13:58:49.189Z,25.77
2023-09-25T14:01:17.782Z,25.27
2023-09-25T14:03:46.204Z,25.62
2023-09-25T14:06:14.516Z,25.43
2023-09-25T14:08:43.266Z,25.66
2023-09-25T14:11:11.858Z,25.68
2023-09-25T14:13:40.643Z,25.59
2023-09-25T14:16:12.219Z,25.30
2023-09-25T14:18:41.057Z,25.13
2023-09-25T14:21:09.452Z,25.26
2023-09-25T14:23:37.782Z,25.30
2023-09-25T14:26:06.342Z,25.22
2023-09-25T14:28:34.971Z,25.08
2023-09-25T14:31:05.974Z,25.19
2023-09-25T14:33:40.586Z,24.73
2023-09-25T14:36:10.620Z,24.49
2023-09-25T14:38:39.204Z,24.76
2023-09-25T14:41:07.984Z,24.26
2023-09-25T14:43:36.197Z,24.21
2023-09-25T14:46:04.777Z,24.15
2023-09-25T14:48:34.115Z,23.78
2023-09-25T14:51:04.427Z,23.61
2023-09-25T14:53:33.267Z,23.60
2023-09-25T14:56:01.451Z,23.41
2023-09-25T14:58:29.709Z,23.23
2023-09-25T15:00:59.149Z,23.11
2023-09-25T15:03:28.011Z,22.97
2023-09-25T15:05:56.956Z,22.85
2023-09-25T15:08:26.939Z,22.86
2023-09-25T15:10:56.059Z,22.85
2023-09-25T15:13:24.863Z,22.83
2023-09-25T15:15:53.287Z,22.82
2023-09-25T15:18:21.697Z,22.77
2023-09-25T15:20:50.007Z,22.83
2023-09-25T15:23:18.379Z,22.84
2023-09-25T15:25:48.221Z,22.69
2023-09-25T15:28:16.710Z,22.61
2023-09-25T15:30:44.978Z,22.49
2023-09-25T15:33:13.289Z,22.50
2023-09-25T15:35:41.721Z,22.42
2023-09-25T15:38:09.955Z,22.26
2023-09-25T15:40:40.146Z,22.20
2023-09-25T15:43:10.003Z,22.23
2023-09-25T15:45:38.398Z,22.23
2023-09-25T15:48:07.204Z,22.12
2023-09-25T15:50:35.508Z,22.15
2023-09-25T15:53:03.755Z,22.15
2023-09-25T15:55:31.954Z,22.11
2023-09-25T15:58:00.351Z,22.14
2023-09-25T16:00:30.794Z,21.96
2023-09-25T16:03:08.121Z,22.00
2023-09-25T16:05:36.974Z,22.00
2023-09-25T16:08:06.050Z,21.90
2023-09-25T16:10:34.370Z,21.83
2023-09-25T16:13:03.220Z,21.77
2023-09-25T16:15:37.497Z,21.73
2023-09-25T16:18:06.966Z,21.63
2023-09-25T16:20:36.906Z,21.53
2023-09-25T16:23:05.952Z,21.49
2023-09-25T16:25:34.425Z,21.54
2023-09-25T16:28:02.954Z,21.46
2023-09-25T16:30:31.757Z,21.48
2023-09-25T16:33:01.721Z,21.39
2023-09-25T16:35:30.748Z,21.44
2023-09-25T16:38:00.210Z,21.28
2023-09-25T16:40:28.954Z,21.32
2023-09-25T16:42:57.325Z,21.26
2023-09-25T16:45:26.132Z,21.11
2023-09-25T16:47:54.764Z,21.13
2023-09-25T16:50:24.659Z,21.15
2023-09-25T16:52:53.089Z,21.14
2023-09-25T16:55:21.457Z,21.09
2023-09-25T16:57:50.087Z,21.04
2023-09-25T17:00:21.457Z,20.96
2023-09-25T17:02:50.288Z,20.92
2023-09-25T17:05:19.676Z,20.97
2023-09-25T17:07:52.045Z,20.83
2023-09-25T17:10:20.303Z,20.93
2023-09-25T17:12:48.783Z,20.87
2023-09-25T17:15:18.623Z,20.83
2023-09-25T17:17:51.146Z,20.71
2023-09-25T17:20:20.604Z,20.73
2023-09-25T17:23:02.079Z,20.65
2023-09-25T17:25:33.527Z,20.55
2023-09-25T17:28:07.427Z,20.46
2023-09-25T17:30:37.897Z,20.41
2023-09-25T17:33:08.426Z,20.24
2023-09-25T17:35:38.490Z,20.23
2023-09-25T17:38:09.174Z,20.11
2023-09-25T17:40:38.171Z,20.07
2023-09-25T17:43:09.590Z,20.08
2023-09-25T17:45:38.858Z,20.00
2023-09-25T17:48:08.495Z,19.99
2023-09-25T17:50:37.548Z,19.80
2023-09-25T17:53:06.799Z,19.79
2023-09-25T17:55:36.816Z,19.79
2023-09-25T17:58:16.077Z,19.63
2023-09-25T18:00:52.499Z,19.65
2023-09-25T18:03:22.068Z,19.60
2023-09-25T18:05:53.724Z,19.67
2023-09-25T18:08:22.962Z,19.58
2023-09-25T18:10:54.407Z,19.48
2023-09-25T18:13:23.216Z,19.44
2023-09-25T18:15:52.981Z,19.36
2023-09-25T18:18:22.004Z,19.42
2023-09-25T18:20:50.867Z,19.38
2023-09-25T18:23:20.673Z,19.26
2023-09-25T18:25:56.102Z,19.21
2023-09-25T18:28:25.468Z,19.19
2023-09-25T18:30:55.311Z,19.10
2023-09-25T18:33:24.763Z,19.11
2023-09-25T18:35:53.633Z,19.10
2023-09-25T18:38:22.933Z,19.02
2023-09-25T18:40:54.042Z,19.06
2023-09-25T18:43:23.094Z,19.01
2023-09-25T18:45:54.576Z,18.93
2023-09-25T18:48:23.514Z,18.93
2023-09-25T18:50:52.039Z,18.81
2023-09-25T18:53:26.182Z,18.77
2023-09-25T18:55:56.764Z,18.79
2023-09-25T18:58:26.233Z,18.74
2023-09-25T19:00:57.340Z,18.65
2023-09-25T19:03:27.940Z,18.68
2023-09-25T19:05:57.600Z,18.63
2023-09-25T19:08:29.478Z,18.55
2023-09-25T19:10:59.613Z,18.52
2023-09-25T19:13:42.254Z,18.55
2023-09-25T19:16:12.088Z,18.51
2023-09-25T19:18:42.054Z,18.44
2023-09-25T19:21:12.623Z,18.35
2023-09-25T19:23:41.453Z,18.41
2023-09-25T19:26:11.601Z,18.35
2023-09-25T19:28:40.234Z,18.30
2023-09-25T19:31:16.374Z,18.33
2023-09-25T19:33:58.329Z,18.29
2023-09-25T19:36:27.133Z,18.21
2023-09-25T19:38:55.937Z,18.19
2023-09-25T19:41:25.817Z,18.09
2023-09-25T19:43:54.194Z,18.10
2023-09-25T19:46:23.453Z,18.10
2023-09-25T19:48:52.181Z,18.02
2023-09-25T19:51:20.816Z,18.00
2023-09-25T19:53:49.654Z,17.95
2023-09-25T19:56:19.362Z,17.93
2023-09-25T19:58:50.478Z,17.88
2023-09-25T20:01:19.889Z,17.83
2023-09-25T20:03:48.699Z,17.85
2023-09-25T20:06:18.797Z,17.81
2023-09-25T20:08:47.617Z,17.77
2023-09-25T20:11:16.479Z,17.75
2023-09-25T20:13:45.777Z,17.72
2023-09-25T20:16:16.166Z,17.69
2023-09-25T20:18:45.098Z,17.64
2023-09-25T20:21:14.169Z,17.67
2023-09-25T20:23:43.576Z,17.57
2023-09-25T20:26:12.272Z,17.55
2023-09-25T20:28:42.080Z,17.56
2023-09-25T20:31:11.492Z,17.50
2023-09-25T20:33:41.818Z,17.47
2023-09-25T20:36:12.665Z,17.47
2023-09-25T20:38:42.775Z,17.41
2023-09-25T20:41:11.759Z,17.39
2023-09-25T20:43:40.869Z,17.40
2023-09-25T20:46:09.530Z,17.35
2023-09-25T20:51:07.323Z,17.36
2023-09-25T20:53:36.088Z,17.30
2023-09-25T20:56:06.414Z,17.26
2023-09-25T20:58:35.123Z,17.24
2023-09-25T21:01:03.554Z,17.32
2023-09-25T21:03:51.796Z,17.23
2023-09-25T21:06:47.266Z,17.19
2023-09-25T21:09:16.065Z,17.18
2023-09-25T21:11:44.629Z,17.13
2023-09-25T21:14:13.941Z,17.11
2023-09-25T21:16:43.276Z,17.10
2023-09-25T21:19:15.445Z,17.09
2023-09-25T21:21:49.434Z,17.06
2023-09-25T21:24:18.711Z,17.08
2023-09-25T21:26:48.221Z,17.06
2023-09-25T21:29:20.770Z,17.00
2023-09-25T21:31:49.883Z,16.99
2023-09-25T21:34:18.852Z,16.98
2023-09-25T21:36:49.393Z,16.97
2023-09-25T21:39:18.293Z,16.98
2023-09-25T21:41:46.877Z,16.89
2023-09-25T21:44:15.873Z,16.91
2023-09-25T21:46:47.106Z,16.90
2023-09-25T21:49:22.537Z,16.76
2023-09-25T21:51:52.519Z,16.78
2023-09-25T21:54:21.166Z,16.75
2023-09-25T21:56:50.048Z,16.74
2023-09-25T21:59:20.642Z,16.73
2023-09-25T22:01:50.592Z,16.72
2023-09-25T22:04:19.522Z,16.68
2023-09-25T22:06:48.582Z,16.68
2023-09-25T22:09:20.022Z,16.69
2023-09-25T22:11:49.543Z,16.64
2023-09-25T22:14:18.002Z,16.62
2023-09-25T22:16:46.585Z,16.59
2023-09-25T22:19:15.641Z,16.59
2023-09-25T22:21:45.785Z,16.59
2023-09-25T22:24:16.341Z,16.57
2023-09-25T22:26:46.525Z,16.53
2023-09-25T22:29:15.767Z,16.54
2023-09-25T22:31:45.337Z,16.49
2023-09-25T22:34:14.649Z,16.46
2023-09-25T22:36:43.518Z,16.44
2023-09-25T22:39:13.882Z,16.45
2023-09-25T22:41:42.929Z,16.40
2023-09-25T22:44:13.477Z,16.38
2023-09-25T22:46:42.846Z,16.38
2023-09-25T22:49:11.838Z,16.37
2023-09-25T22:51:40.579Z,16.38
2023-09-25T22:54:09.278Z,16.30
2023-09-25T22:56:38.171Z,16.28
2023-09-25T22:59:07.097Z,16.29
2023-09-25T23:01:38.657Z,16.26
2023-09-25T23:04:08.256Z,16.21
2023-09-25T23:06:36.660Z,16.23
2023-09-25T23:09:06.220Z,16.19
2023-09-25T23:11:34.861Z,16.17
2023-09-25T23:14:04.393Z,16.15
2023-09-25T23:16:34.121Z,16.17
2023-09-25T23:19:04.314Z,16.15
2023-09-25T23:21:34.344Z,16.14
2023-09-25T23:24:02.989Z,16.11
2023-09-25T23:26:32.601Z,16.07
2023-09-25T23:29:01.965Z,16.08
2023-09-25T23:31:30.566Z,16.06
2023-09-25T23:33:59.716Z,16.09
2023-09-25T23:36:30.108Z,16.05
2023-09-25T23:38:59.394Z,16.03
2023-09-25T23:41:28.095Z,15.98
2023-09-25T23:43:56.655Z,15.97
2023-09-25T23:46:25.209Z,15.93
2023-09-25T23:48:55.703Z,15.89
2023-09-25T23:51:24.887Z,15.86
2023-09-25T23:53:54.894Z,15.84
2023-09-25T23:56:23.582Z,15.82
2023-09-25T23:58:52.185Z,15.79
